Airfield :
LOGIN :

Register | Disclaimer

   EN    FR    IT 

 










Legend :    VFR   Marginal VFR   IFR   Intensive IFR   Very Intensive IFR
Visi :
Ceiling :
>= 8 km
>= 3000ft
5 to 8 km
1000 to 3000 ft
1500m to 5 km
500 to 1000 ft
800 to 1500m
200 to 500 ft
< 800m
< 200 ft
Symbols :   Thunderstorms  Fog  Heavy snow  Heavy precipitations  Wind > 20 kt
SIGMETs :     Misc.  Thunderstorms  Icing  Turbulence  Mountain Waves  Volcanic Ashes






- Airport Elevation : 5600 ft
- IATA code : SMV


LSZS - Samedan

CURRENT METAR :
  • 191520Z 04013KT 2000 -SN BKN025 M04/M08 Q1018 RMK R TL170

EXPIRED METARs :
  • 191450Z 03018KT 1800 -SN BKN020 M03/M06 Q1017 RMK Q TL170
  • 191420Z 32013KT 280V010 9999 BKN040 M01/M10 Q1017 RMK P TL170
  • 191350Z 07011KT 030V160 9999 FEW030 BKN050 M01/M09 Q1016 RMK O TL170
  • 191320Z 19008KT 160V240 8000 FEW030 BKN060 M01/M06 Q1016 RESN RMK N TL170
  • 191250Z 19007KT 130V230 8000 -SN SCT030 BKN050 M01/M06 Q1017 RMK M TL170

TAF TAF LSZS
Valid from the 19 at 15:00 until the 20 at 00:00 UTC


191425Z 1915/1924 05010KT 9999 FEW030 BKN060 TX00/1915Z
TEMPO 1915/1921 4500 -SN
TEMPO 1915/1919 1400 SN
ATIS : +41 81 834 93 24



MET'MAP, your aeronautical weather chart ! - Copyright ORBIFLY December 2007 - Disclaimer

ORBIFLY MET'MAP TEAM :

Programming & Development : Alexandra Zaïnal
Concept & original design : Baudouin d'Aumeries
Assistance for programming : Marc-Olivier Méhu
Technical & hardware support : Manuel Goepfert

Contact : metmap@orbifly.com




SOURCES & CREDITS :

   NOAA